sensor_id;sensor_type;location;lat;lon;timestamp;pressure;altitude;pressure_sealevel;temperature;humidity
967;BME280;56108;48.730;9.304;2023-04-20T00:00:35;97512.00;;;3.04;100.00
967;BME280;56108;48.730;9.304;2023-04-20T00:02:43;97511.66;;;3.12;96.74
967;BME280;56108;48.730;9.304;2023-04-20T00:04:51;97512.78;;;3.06;100.00
967;BME280;56108;48.730;9.304;2023-04-20T00:06:59;97507.00;;;2.98;99.33
967;BME280;56108;48.730;9.304;2023-04-20T00:09:08;97500.31;;;2.90;99.55
967;BME280;56108;48.730;9.304;2023-04-20T00:11:17;97504.97;;;2.83;99.68
967;BME280;56108;48.730;9.304;2023-04-20T00:13:25;97491.00;;;2.82;100.00
967;BME280;56108;48.730;9.304;2023-04-20T00:15:35;97496.47;;;2.76;100.00
967;BME280;56108;48.730;9.304;2023-04-20T00:17:43;97488.81;;;2.70;100.00
967;BME280;56108;48.730;9.304;2023-04-20T00:19:52;97483.06;;;2.60;100.00
967;BME280;56108;48.730;9.304;2023-04-20T00:22:00;97488.53;;;2.56;100.00
967;BME280;56108;48.730;9.304;2023-04-20T00:24:09;97481.78;;;2.49;100.00
967;BME280;56108;48.730;9.304;2023-04-20T00:26:19;97476.91;;;2.40;100.00
967;BME280;56108;48.730;9.304;2023-04-20T00:28:29;97476.78;;;2.43;100.00
967;BME280;56108;48.730;9.304;2023-04-20T00:30:40;97475.25;;;2.37;100.00
967;BME280;56108;48.730;9.304;2023-04-20T00:32:48;97471.88;;;2.33;100.00
967;BME280;56108;48.730;9.304;2023-04-20T00:34:56;97462.38;;;2.31;100.00
967;BME280;56108;48.730;9.304;2023-04-20T00:37:04;97463.50;;;2.24;100.00
967;BME280;56108;48.730;9.304;2023-04-20T00:39:12;97458.41;;;2.19;100.00
967;BME280;56108;48.730;9.304;2023-04-20T00:41:21;97457.63;;;2.17;100.00
967;BME280;56108;48.730;9.304;2023-04-20T00:43:29;97457.88;;;2.11;100.00
967;BME280;56108;48.730;9.304;2023-04-20T00:45:40;97457.97;;;2.08;100.00
967;BME280;56108;48.730;9.304;2023-04-20T00:47:47;97451.25;;;2.01;100.00
967;BME280;56108;48.730;9.304;2023-04-20T00:49:57;97454.00;;;1.98;100.00
967;BME280;56108;48.730;9.304;2023-04-20T00:52:05;97442.78;;;1.94;100.00
967;BME280;56108;48.730;9.304;2023-04-20T00:54:13;97441.09;;;1.92;100.00
967;BME280;56108;48.730;9.304;2023-04-20T00:56:22;97437.00;;;1.85;100.00
967;BME280;56108;48.730;9.304;2023-04-20T00:58:32;97431.88;;;1.81;100.00
967;BME280;56108;48.730;9.304;2023-04-20T01:00:44;97443.22;;;1.82;100.00
967;BME280;56108;48.730;9.304;2023-04-20T01:02:54;97436.94;;;1.86;100.00
967;BME280;56108;48.730;9.304;2023-04-20T01:05:03;97435.81;;;1.93;100.00
967;BME280;56108;48.730;9.304;2023-04-20T01:07:12;97429.41;;;2.00;100.00
967;BME280;56108;48.730;9.304;2023-04-20T01:09:20;97425.13;;;1.98;100.00
967;BME280;56108;48.730;9.304;2023-04-20T01:11:28;97422.03;;;1.88;100.00
967;BME280;56108;48.730;9.304;2023-04-20T01:13:36;97420.66;;;1.78;100.00
967;BME280;56108;48.730;9.304;2023-04-20T01:15:48;97407.75;;;1.72;100.00
967;BME280;56108;48.730;9.304;2023-04-20T01:17:55;97409.63;;;1.68;100.00
967;BME280;56108;48.730;9.304;2023-04-20T01:20:06;97397.44;;;1.67;100.00
967;BME280;56108;48.730;9.304;2023-04-20T01:22:20;97395.19;;;1.56;100.00
967;BME280;56108;48.730;9.304;2023-04-20T01:24:28;97388.41;;;1.51;100.00
967;BME280;56108;48.730;9.304;2023-04-20T01:26:36;97385.78;;;1.51;100.00
967;BME280;56108;48.730;9.304;2023-04-20T01:28:45;97383.91;;;1.54;100.00
967;BME280;56108;48.730;9.304;2023-04-20T01:30:53;97381.34;;;1.53;100.00
967;BME280;56108;48.730;9.304;2023-04-20T01:33:03;97383.06;;;1.54;100.00
967;BME280;56108;48.730;9.304;2023-04-20T01:35:11;97378.03;;;1.48;100.00
967;BME280;56108;48.730;9.304;2023-04-20T01:37:24;97376.38;;;1.45;100.00
967;BME280;56108;48.730;9.304;2023-04-20T01:39:34;97370.72;;;1.56;100.00
967;BME280;56108;48.730;9.304;2023-04-20T01:41:42;97361.91;;;1.59;100.00
967;BME280;56108;48.730;9.304;2023-04-20T01:43:50;97357.63;;;1.56;100.00
967;BME280;56108;48.730;9.304;2023-04-20T01:45:59;97359.69;;;1.48;100.00
967;BME280;56108;48.730;9.304;2023-04-20T01:48:08;97358.94;;;1.44;100.00
967;BME280;56108;48.730;9.304;2023-04-20T01:50:16;97361.63;;;1.43;100.00
967;BME280;56108;48.730;9.304;2023-04-20T01:52:26;97353.13;;;1.36;100.00
967;BME280;56108;48.730;9.304;2023-04-20T01:54:34;97351.47;;;1.34;100.00
967;BME280;56108;48.730;9.304;2023-04-20T01:56:42;97355.56;;;1.41;100.00
967;BME280;56108;48.730;9.304;2023-04-20T01:58:52;97351.41;;;1.35;100.00
967;BME280;56108;48.730;9.304;2023-04-20T02:01:00;97346.16;;;1.35;100.00
967;BME280;56108;48.730;9.304;2023-04-20T02:03:10;97345.03;;;1.42;100.00
967;BME280;56108;48.730;9.304;2023-04-20T02:05:18;97337.72;;;1.50;100.00
967;BME280;56108;48.730;9.304;2023-04-20T02:07:29;97346.00;;;1.40;100.00
967;BME280;56108;48.730;9.304;2023-04-20T02:09:37;97338.50;;;1.30;100.00
967;BME280;56108;48.730;9.304;2023-04-20T02:11:46;97337.41;;;1.36;100.00
967;BME280;56108;48.730;9.304;2023-04-20T02:13:55;97334.88;;;1.33;100.00
967;BME280;56108;48.730;9.304;2023-04-20T02:16:04;97336.81;;;1.28;100.00
967;BME280;56108;48.730;9.304;2023-04-20T02:18:13;97333.59;;;1.20;100.00
967;BME280;56108;48.730;9.304;2023-04-20T02:20:23;97330.03;;;1.22;100.00
967;BME280;56108;48.730;9.304;2023-04-20T02:22:34;97326.03;;;1.36;100.00
967;BME280;56108;48.730;9.304;2023-04-20T02:24:42;97328.97;;;1.51;100.00
967;BME280;56108;48.730;9.304;2023-04-20T02:26:51;97332.84;;;1.41;100.00
967;BME280;56108;48.730;9.304;2023-04-20T02:29:00;97327.53;;;1.43;100.00
967;BME280;56108;48.730;9.304;2023-04-20T02:31:11;97334.16;;;1.53;100.00
967;BME280;56108;48.730;9.304;2023-04-20T02:33:21;97334.59;;;1.64;100.00
967;BME280;56108;48.730;9.304;2023-04-20T02:35:30;97335.00;;;1.53;100.00
967;BME280;56108;48.730;9.304;2023-04-20T02:37:44;97325.19;;;1.59;100.00
967;BME280;56108;48.730;9.304;2023-04-20T02:39:52;97320.97;;;1.54;100.00
967;BME280;56108;48.730;9.304;2023-04-20T02:42:04;97321.13;;;1.50;100.00
967;BME280;56108;48.730;9.304;2023-04-20T02:44:13;97318.38;;;1.31;100.00
967;BME280;56108;48.730;9.304;2023-04-20T02:46:21;97315.47;;;1.15;100.00
967;BME280;56108;48.730;9.304;2023-04-20T02:48:29;97308.19;;;0.98;100.00
967;BME280;56108;48.730;9.304;2023-04-20T02:50:38;97316.41;;;0.89;100.00
967;BME280;56108;48.730;9.304;2023-04-20T02:52:56;97308.63;;;0.86;100.00
967;BME280;56108;48.730;9.304;2023-04-20T02:55:06;97307.84;;;0.84;100.00
967;BME280;56108;48.730;9.304;2023-04-20T02:57:16;97299.16;;;0.82;100.00
967;BME280;56108;48.730;9.304;2023-04-20T02:59:24;97298.25;;;0.83;100.00
967;BME280;56108;48.730;9.304;2023-04-20T03:01:39;97300.94;;;0.82;100.00
967;BME280;56108;48.730;9.304;2023-04-20T03:03:51;97298.25;;;0.83;100.00
967;BME280;56108;48.730;9.304;2023-04-20T03:06:00;97298.16;;;0.86;100.00
967;BME280;56108;48.730;9.304;2023-04-20T03:08:12;97293.28;;;1.00;100.00
967;BME280;56108;48.730;9.304;2023-04-20T03:10:22;97286.09;;;1.06;100.00
967;BME280;56108;48.730;9.304;2023-04-20T03:12:37;97293.00;;;1.08;100.00
967;BME280;56108;48.730;9.304;2023-04-20T03:15:14;97290.50;;;1.05;100.00
967;BME280;56108;48.730;9.304;2023-04-20T03:17:32;97287.69;;;0.86;100.00
967;BME280;56108;48.730;9.304;2023-04-20T03:19:41;97288.91;;;0.76;100.00
967;BME280;56108;48.730;9.304;2023-04-20T03:21:52;97276.78;;;0.73;100.00
967;BME280;56108;48.730;9.304;2023-04-20T03:24:03;97267.56;;;0.63;100.00
967;BME280;56108;48.730;9.304;2023-04-20T03:26:14;97266.25;;;0.50;100.00
967;BME280;56108;48.730;9.304;2023-04-20T03:28:43;97267.75;;;0.57;100.00
967;BME280;56108;48.730;9.304;2023-04-20T03:30:56;97266.47;;;0.69;100.00
967;BME280;56108;48.730;9.304;2023-04-20T03:33:06;97261.66;;;0.57;100.00
967;BME280;56108;48.730;9.304;2023-04-20T03:35:15;97260.31;;;0.45;100.00
967;BME280;56108;48.730;9.304;2023-04-20T03:37:25;97250.72;;;0.45;100.00
967;BME280;56108;48.730;9.304;2023-04-20T03:39:35;97251.94;;;0.35;100.00
967;BME280;56108;48.730;9.304;2023-04-20T03:41:44;97251.63;;;0.44;100.00
967;BME280;56108;48.730;9.304;2023-04-20T03:43:55;97248.72;;;0.52;100.00
967;BME280;56108;48.730;9.304;2023-04-20T03:46:03;97244.75;;;0.42;100.00
967;BME280;56108;48.730;9.304;2023-04-20T03:48:11;97238.75;;;0.38;100.00
967;BME280;56108;48.730;9.304;2023-04-20T03:50:19;97241.25;;;0.41;100.00
967;BME280;56108;48.730;9.304;2023-04-20T03:52:27;97236.13;;;0.38;100.00
967;BME280;56108;48.730;9.304;2023-04-20T03:54:42;97222.72;;;0.47;100.00
967;BME280;56108;48.730;9.304;2023-04-20T03:56:52;97225.97;;;0.54;100.00
967;BME280;56108;48.730;9.304;2023-04-20T03:59:00;97226.72;;;0.58;100.00
967;BME280;56108;48.730;9.304;2023-04-20T04:01:09;97230.22;;;0.58;100.00
967;BME280;56108;48.730;9.304;2023-04-20T04:03:23;97226.59;;;0.61;100.00
967;BME280;56108;48.730;9.304;2023-04-20T04:05:32;97232.91;;;0.55;100.00
967;BME280;56108;48.730;9.304;2023-04-20T04:07:40;97233.91;;;0.52;100.00
967;BME280;56108;48.730;9.304;2023-04-20T04:09:52;97231.28;;;0.52;100.00
967;BME280;56108;48.730;9.304;2023-04-20T04:12:00;97228.84;;;0.46;100.00
967;BME280;56108;48.730;9.304;2023-04-20T04:14:09;97231.44;;;0.48;100.00
967;BME280;56108;48.730;9.304;2023-04-20T04:16:17;97230.59;;;0.47;100.00
967;BME280;56108;48.730;9.304;2023-04-20T04:18:26;97231.16;;;0.56;100.00
967;BME280;56108;48.730;9.304;2023-04-20T04:20:41;97232.06;;;0.55;100.00
967;BME280;56108;48.730;9.304;2023-04-20T04:22:51;97232.66;;;0.63;100.00
967;BME280;56108;48.730;9.304;2023-04-20T04:25:11;97235.63;;;0.52;100.00
967;BME280;56108;48.730;9.304;2023-04-20T04:27:20;97228.69;;;0.76;100.00
967;BME280;56108;48.730;9.304;2023-04-20T04:29:33;97235.16;;;0.66;100.00
967;BME280;56108;48.730;9.304;2023-04-20T04:31:46;97232.66;;;0.86;100.00
967;BME280;56108;48.730;9.304;2023-04-20T04:33:57;97234.00;;;0.73;100.00
967;BME280;56108;48.730;9.304;2023-04-20T04:36:10;97235.06;;;0.69;100.00
967;BME280;56108;48.730;9.304;2023-04-20T04:38:22;97234.94;;;0.72;100.00
967;BME280;56108;48.730;9.304;2023-04-20T04:40:33;97239.16;;;0.76;100.00
967;BME280;56108;48.730;9.304;2023-04-20T04:42:45;97235.75;;;0.97;100.00
967;BME280;56108;48.730;9.304;2023-04-20T04:44:53;97242.41;;;1.06;100.00
967;BME280;56108;48.730;9.304;2023-04-20T04:47:08;97244.19;;;1.06;100.00
967;BME280;56108;48.730;9.304;2023-04-20T04:49:18;97239.56;;;1.12;100.00
967;BME280;56108;48.730;9.304;2023-04-20T04:51:28;97241.75;;;1.46;100.00
967;BME280;56108;48.730;9.304;2023-04-20T04:53:37;97245.03;;;1.95;100.00
967;BME280;56108;48.730;9.304;2023-04-20T04:55:51;97253.47;;;2.85;100.00
967;BME280;56108;48.730;9.304;2023-04-20T04:57:59;97268.06;;;3.50;100.00
967;BME280;56108;48.730;9.304;2023-04-20T05:00:08;97271.72;;;4.20;100.00
967;BME280;56108;48.730;9.304;2023-04-20T05:02:17;97276.81;;;4.92;100.00
967;BME280;56108;48.730;9.304;2023-04-20T05:04:28;97284.16;;;5.36;100.00
967;BME280;56108;48.730;9.304;2023-04-20T05:06:36;97281.06;;;5.61;99.67
967;BME280;56108;48.730;9.304;2023-04-20T05:08:45;97292.00;;;6.03;94.28
967;BME280;56108;48.730;9.304;2023-04-20T05:10:56;97288.50;;;6.78;90.57
967;BME280;56108;48.730;9.304;2023-04-20T05:13:06;97293.16;;;7.47;84.54
967;BME280;56108;48.730;9.304;2023-04-20T05:15:15;97308.00;;;7.78;76.40
967;BME280;56108;48.730;9.304;2023-04-20T05:17:23;97312.16;;;8.51;72.78
967;BME280;56108;48.730;9.304;2023-04-20T05:19:32;97315.31;;;8.70;71.25
967;BME280;56108;48.730;9.304;2023-04-20T05:21:40;97341.00;;;9.86;64.38
967;BME280;56108;48.730;9.304;2023-04-20T05:23:48;97351.47;;;10.86;58.64
967;BME280;56108;48.730;9.304;2023-04-20T05:25:58;97367.28;;;11.12;55.72
967;BME280;56108;48.730;9.304;2023-04-20T05:28:07;97363.22;;;11.65;54.99
967;BME280;56108;48.730;9.304;2023-04-20T05:30:15;97367.75;;;11.87;54.03
967;BME280;56108;48.730;9.304;2023-04-20T05:32:26;97388.00;;;12.89;50.74
967;BME280;56108;48.730;9.304;2023-04-20T05:34:39;97394.34;;;13.73;48.28
967;BME280;56108;48.730;9.304;2023-04-20T05:36:47;97405.81;;;13.85;47.21
967;BME280;56108;48.730;9.304;2023-04-20T05:38:55;97408.19;;;14.09;46.92
967;BME280;56108;48.730;9.304;2023-04-20T05:41:06;97411.56;;;14.63;44.80
967;BME280;56108;48.730;9.304;2023-04-20T05:43:14;97423.50;;;15.18;43.65
967;BME280;56108;48.730;9.304;2023-04-20T05:45:23;97419.97;;;14.98;43.34
967;BME280;56108;48.730;9.304;2023-04-20T05:47:33;97422.25;;;15.22;43.37
967;BME280;56108;48.730;9.304;2023-04-20T05:49:41;97432.13;;;15.60;42.63
967;BME280;56108;48.730;9.304;2023-04-20T05:51:50;97426.91;;;15.49;42.56
967;BME280;56108;48.730;9.304;2023-04-20T05:53:58;97432.00;;;16.38;41.03
967;BME280;56108;48.730;9.304;2023-04-20T05:56:09;97438.16;;;16.95;39.77
967;BME280;56108;48.730;9.304;2023-04-20T05:58:18;97436.19;;;17.33;38.70
967;BME280;56108;48.730;9.304;2023-04-20T06:00:28;97432.63;;;17.60;37.62
967;BME280;56108;48.730;9.304;2023-04-20T06:02:36;97446.81;;;17.52;37.28
967;BME280;56108;48.730;9.304;2023-04-20T06:04:46;97444.47;;;17.21;38.01
967;BME280;56108;48.730;9.304;2023-04-20T06:06:54;97445.41;;;17.12;37.54
967;BME280;56108;48.730;9.304;2023-04-20T06:09:05;97445.28;;;18.03;36.22
967;BME280;56108;48.730;9.304;2023-04-20T06:11:15;97418.25;;;17.33;37.54
967;BME280;56108;48.730;9.304;2023-04-20T06:13:24;97413.78;;;17.78;37.61
967;BME280;56108;48.730;9.304;2023-04-20T06:15:32;97418.16;;;18.57;35.44
967;BME280;56108;48.730;9.304;2023-04-20T06:17:42;97414.28;;;17.99;36.20
967;BME280;56108;48.730;9.304;2023-04-20T06:19:50;97400.69;;;17.65;37.68
967;BME280;56108;48.730;9.304;2023-04-20T06:22:06;97385.47;;;18.25;36.04
967;BME280;56108;48.730;9.304;2023-04-20T06:24:16;97384.06;;;17.87;36.28
967;BME280;56108;48.730;9.304;2023-04-20T06:26:27;97373.94;;;17.28;38.13
967;BME280;56108;48.730;9.304;2023-04-20T06:28:35;97379.56;;;18.56;36.10
967;BME280;56108;48.730;9.304;2023-04-20T06:30:45;97364.94;;;19.09;34.55
967;BME280;56108;48.730;9.304;2023-04-20T06:32:55;97338.25;;;18.82;35.69
967;BME280;56108;48.730;9.304;2023-04-20T06:35:03;97343.75;;;19.22;35.40
967;BME280;56108;48.730;9.304;2023-04-20T06:37:12;97341.53;;;20.63;32.28
967;BME280;56108;48.730;9.304;2023-04-20T06:39:22;97331.63;;;19.59;33.36
967;BME280;56108;48.730;9.304;2023-04-20T06:41:32;97339.50;;;19.12;34.47
967;BME280;56108;48.730;9.304;2023-04-20T06:43:43;97328.47;;;17.78;35.88
967;BME280;56108;48.730;9.304;2023-04-20T06:45:52;97326.13;;;18.01;36.67
967;BME280;56108;48.730;9.304;2023-04-20T06:48:00;97320.75;;;17.75;37.55
967;BME280;56108;48.730;9.304;2023-04-20T06:50:31;97322.34;;;19.53;35.41
967;BME280;56108;48.730;9.304;2023-04-20T06:52:40;97331.06;;;19.88;33.87
967;BME280;56108;48.730;9.304;2023-04-20T06:54:49;97325.34;;;19.01;34.45
967;BME280;56108;48.730;9.304;2023-04-20T06:57:00;97327.94;;;18.35;35.61
967;BME280;56108;48.730;9.304;2023-04-20T06:59:10;97313.97;;;17.09;37.11
967;BME280;56108;48.730;9.304;2023-04-20T07:01:20;97308.22;;;14.60;41.81
967;BME280;56108;48.730;9.304;2023-04-20T07:03:29;97301.34;;;13.35;45.10
967;BME280;56108;48.730;9.304;2023-04-20T07:05:38;97293.66;;;12.57;48.03
967;BME280;56108;48.730;9.304;2023-04-20T07:07:51;97284.25;;;11.87;50.56
967;BME280;56108;48.730;9.304;2023-04-20T07:10:00;97283.81;;;11.58;51.75
967;BME280;56108;48.730;9.304;2023-04-20T07:12:11;97281.56;;;11.64;50.98
967;BME280;56108;48.730;9.304;2023-04-20T07:14:19;97276.03;;;12.33;51.69
967;BME280;56108;48.730;9.304;2023-04-20T07:16:27;97280.56;;;11.76;50.17
967;BME280;56108;48.730;9.304;2023-04-20T07:18:35;97282.13;;;11.57;51.88
967;BME280;56108;48.730;9.304;2023-04-20T07:20:44;97277.91;;;10.37;55.71
967;BME280;56108;48.730;9.304;2023-04-20T07:22:51;97279.22;;;10.32;57.50
967;BME280;56108;48.730;9.304;2023-04-20T07:25:00;97281.59;;;10.11;56.73
967;BME280;56108;48.730;9.304;2023-04-20T07:27:11;97277.38;;;9.59;58.93
967;BME280;56108;48.730;9.304;2023-04-20T07:29:19;97267.06;;;8.24;62.98
967;BME280;56108;48.730;9.304;2023-04-20T07:31:27;97268.50;;;7.88;66.45
967;BME280;56108;48.730;9.304;2023-04-20T07:33:38;97260.16;;;7.53;69.80
967;BME280;56108;48.730;9.304;2023-04-20T07:35:46;97263.66;;;7.39;69.02
967;BME280;56108;48.730;9.304;2023-04-20T07:37:54;97254.25;;;6.76;74.65
967;BME280;56108;48.730;9.304;2023-04-20T07:40:03;97259.34;;;6.79;74.91
967;BME280;56108;48.730;9.304;2023-04-20T07:42:15;97254.91;;;6.80;77.57
967;BME280;56108;48.730;9.304;2023-04-20T07:44:23;97252.56;;;7.04;75.25
967;BME280;56108;48.730;9.304;2023-04-20T07:46:32;97253.28;;;6.63;78.34
967;BME280;56108;48.730;9.304;2023-04-20T07:48:40;97260.66;;;6.12;82.10
967;BME280;56108;48.730;9.304;2023-04-20T07:50:48;97266.16;;;5.76;83.90
967;BME280;56108;48.730;9.304;2023-04-20T07:52:56;97268.38;;;5.84;85.82
967;BME280;56108;48.730;9.304;2023-04-20T07:55:05;97265.84;;;5.98;85.29
967;BME280;56108;48.730;9.304;2023-04-20T07:57:18;97266.56;;;5.68;88.11
967;BME280;56108;48.730;9.304;2023-04-20T07:59:26;97259.34;;;5.72;89.41
967;BME280;56108;48.730;9.304;2023-04-20T08:01:34;97261.75;;;5.76;89.72
967;BME280;56108;48.730;9.304;2023-04-20T08:03:42;97262.09;;;5.86;89.77
967;BME280;56108;48.730;9.304;2023-04-20T08:05:51;97264.56;;;6.05;89.40
967;BME280;56108;48.730;9.304;2023-04-20T08:07:59;97257.91;;;5.66;90.19
967;BME280;56108;48.730;9.304;2023-04-20T08:10:08;97255.75;;;5.57;93.53
967;BME280;56108;48.730;9.304;2023-04-20T08:12:20;97244.53;;;5.54;94.69
967;BME280;56108;48.730;9.304;2023-04-20T08:14:28;97258.34;;;5.74;93.98
967;BME280;56108;48.730;9.304;2023-04-20T08:16:36;97246.59;;;5.48;94.63
967;BME280;56108;48.730;9.304;2023-04-20T08:18:44;97244.53;;;5.38;95.20
967;BME280;56108;48.730;9.304;2023-04-20T08:20:52;97244.22;;;5.27;98.81
967;BME280;56108;48.730;9.304;2023-04-20T08:23:03;97246.78;;;5.12;99.50
967;BME280;56108;48.730;9.304;2023-04-20T08:25:11;97244.56;;;5.20;100.00
967;BME280;56108;48.730;9.304;2023-04-20T08:27:21;97252.72;;;5.16;100.00
967;BME280;56108;48.730;9.304;2023-04-20T08:29:30;97246.94;;;5.09;100.00
967;BME280;56108;48.730;9.304;2023-04-20T08:31:37;97240.09;;;5.22;100.00
967;BME280;56108;48.730;9.304;2023-04-20T08:33:47;97246.53;;;5.17;100.00
967;BME280;56108;48.730;9.304;2023-04-20T08:35:55;97251.06;;;5.31;100.00
967;BME280;56108;48.730;9.304;2023-04-20T08:38:03;97244.34;;;5.41;100.00
967;BME280;56108;48.730;9.304;2023-04-20T08:40:12;97243.34;;;5.10;100.00
967;BME280;56108;48.730;9.304;2023-04-20T08:42:22;97245.75;;;5.15;100.00
967;BME280;56108;48.730;9.304;2023-04-20T08:44:30;97245.09;;;5.27;100.00
967;BME280;56108;48.730;9.304;2023-04-20T08:46:40;97238.88;;;5.12;100.00
967;BME280;56108;48.730;9.304;2023-04-20T08:48:49;97242.38;;;5.29;100.00
967;BME280;56108;48.730;9.304;2023-04-20T08:51:00;97242.13;;;5.33;100.00
967;BME280;56108;48.730;9.304;2023-04-20T08:53:08;97235.22;;;5.31;100.00
967;BME280;56108;48.730;9.304;2023-04-20T08:55:18;97232.81;;;5.26;100.00
967;BME280;56108;48.730;9.304;2023-04-20T08:57:29;97232.81;;;5.10;100.00
967;BME280;56108;48.730;9.304;2023-04-20T08:59:37;97232.53;;;4.99;100.00
967;BME280;56108;48.730;9.304;2023-04-20T09:01:46;97241.38;;;4.98;100.00
967;BME280;56108;48.730;9.304;2023-04-20T09:03:54;97232.97;;;5.07;100.00
967;BME280;56108;48.730;9.304;2023-04-20T09:06:02;97243.22;;;5.29;100.00
967;BME280;56108;48.730;9.304;2023-04-20T09:08:11;97241.59;;;5.27;100.00
967;BME280;56108;48.730;9.304;2023-04-20T09:10:20;97230.78;;;5.15;100.00
967;BME280;56108;48.730;9.304;2023-04-20T09:12:39;97226.28;;;5.17;100.00
967;BME280;56108;48.730;9.304;2023-04-20T09:14:47;97222.00;;;5.15;100.00
967;BME280;56108;48.730;9.304;2023-04-20T09:16:57;97225.09;;;5.23;100.00
967;BME280;56108;48.730;9.304;2023-04-20T09:19:09;97219.41;;;5.31;100.00
967;BME280;56108;48.730;9.304;2023-04-20T09:21:17;97223.59;;;5.50;100.00
967;BME280;56108;48.730;9.304;2023-04-20T09:23:26;97216.84;;;5.29;100.00
967;BME280;56108;48.730;9.304;2023-04-20T09:25:34;97220.84;;;5.36;100.00
967;BME280;56108;48.730;9.304;2023-04-20T09:27:54;97218.75;;;5.59;100.00
967;BME280;56108;48.730;9.304;2023-04-20T09:30:02;97218.56;;;5.46;100.00
967;BME280;56108;48.730;9.304;2023-04-20T09:32:20;97223.69;;;5.49;100.00
967;BME280;56108;48.730;9.304;2023-04-20T09:34:29;97224.63;;;5.64;100.00
967;BME280;56108;48.730;9.304;2023-04-20T09:36:37;97225.19;;;5.69;100.00
967;BME280;56108;48.730;9.304;2023-04-20T09:38:46;97231.25;;;5.55;100.00
967;BME280;56108;48.730;9.304;2023-04-20T09:40:54;97222.22;;;5.43;100.00
967;BME280;56108;48.730;9.304;2023-04-20T09:43:09;97218.16;;;5.38;100.00
967;BME280;56108;48.730;9.304;2023-04-20T09:45:20;97219.06;;;5.37;100.00
967;BME280;56108;48.730;9.304;2023-04-20T09:47:29;97220.78;;;5.38;100.00
967;BME280;56108;48.730;9.304;2023-04-20T09:49:37;97221.09;;;5.32;100.00
967;BME280;56108;48.730;9.304;2023-04-20T09:51:45;97211.13;;;5.37;100.00
967;BME280;56108;48.730;9.304;2023-04-20T09:53:55;97218.91;;;5.40;100.00
967;BME280;56108;48.730;9.304;2023-04-20T09:56:04;97215.66;;;5.50;100.00
967;BME280;56108;48.730;9.304;2023-04-20T09:58:17;97217.81;;;5.44;100.00
967;BME280;56108;48.730;9.304;2023-04-20T10:00:26;97217.22;;;5.55;100.00
967;BME280;56108;48.730;9.304;2023-04-20T10:02:34;97224.03;;;5.59;100.00
967;BME280;56108;48.730;9.304;2023-04-20T10:04:53;97220.09;;;5.66;100.00
967;BME280;56108;48.730;9.304;2023-04-20T10:07:02;97221.97;;;5.80;100.00
967;BME280;56108;48.730;9.304;2023-04-20T10:09:20;97214.97;;;5.79;100.00
967;BME280;56108;48.730;9.304;2023-04-20T10:11:31;97221.38;;;5.74;100.00
967;BME280;56108;48.730;9.304;2023-04-20T10:14:00;97218.22;;;5.68;100.00
967;BME280;56108;48.730;9.304;2023-04-20T10:16:16;97216.16;;;5.73;100.00
967;BME280;56108;48.730;9.304;2023-04-20T10:18:24;97216.59;;;5.81;100.00
967;BME280;56108;48.730;9.304;2023-04-20T10:20:33;97211.31;;;5.81;100.00
967;BME280;56108;48.730;9.304;2023-04-20T10:22:41;97212.56;;;5.90;100.00
967;BME280;56108;48.730;9.304;2023-04-20T10:24:49;97203.13;;;5.86;100.00
967;BME280;56108;48.730;9.304;2023-04-20T10:26:58;97207.66;;;5.68;100.00
967;BME280;56108;48.730;9.304;2023-04-20T10:29:09;97205.53;;;5.74;100.00
967;BME280;56108;48.730;9.304;2023-04-20T10:31:18;97193.25;;;5.73;100.00
967;BME280;56108;48.730;9.304;2023-04-20T10:33:26;97192.59;;;5.70;100.00
967;BME280;56108;48.730;9.304;2023-04-20T10:35:41;97186.88;;;5.78;100.00
967;BME280;56108;48.730;9.304;2023-04-20T10:37:50;97178.94;;;5.78;100.00
967;BME280;56108;48.730;9.304;2023-04-20T10:39:59;97185.34;;;5.73;100.00
967;BME280;56108;48.730;9.304;2023-04-20T10:42:11;97180.25;;;5.55;100.00
967;BME280;56108;48.730;9.304;2023-04-20T10:44:24;97173.94;;;5.57;100.00
967;BME280;56108;48.730;9.304;2023-04-20T10:46:32;97165.16;;;5.72;100.00
967;BME280;56108;48.730;9.304;2023-04-20T10:48:51;97166.09;;;5.71;100.00
967;BME280;56108;48.730;9.304;2023-04-20T10:51:08;97150.69;;;5.80;100.00
967;BME280;56108;48.730;9.304;2023-04-20T10:53:20;97152.28;;;5.82;100.00
967;BME280;56108;48.730;9.304;2023-04-20T10:55:29;97156.88;;;5.79;100.00
967;BME280;56108;48.730;9.304;2023-04-20T10:57:38;97148.63;;;5.85;100.00
967;BME280;56108;48.730;9.304;2023-04-20T10:59:48;97136.94;;;5.89;100.00
967;BME280;56108;48.730;9.304;2023-04-20T11:01:56;97130.19;;;5.99;100.00
967;BME280;56108;48.730;9.304;2023-04-20T11:04:05;97126.41;;;6.19;100.00
967;BME280;56108;48.730;9.304;2023-04-20T11:06:14;97120.78;;;6.09;100.00
967;BME280;56108;48.730;9.304;2023-04-20T11:08:22;97120.13;;;5.90;100.00
967;BME280;56108;48.730;9.304;2023-04-20T11:10:37;97115.31;;;5.98;100.00
967;BME280;56108;48.730;9.304;2023-04-20T11:12:46;97115.56;;;6.23;100.00
967;BME280;56108;48.730;9.304;2023-04-20T11:14:58;97111.59;;;6.16;100.00
967;BME280;56108;48.730;9.304;2023-04-20T11:17:08;97108.41;;;6.54;100.00
967;BME280;56108;48.730;9.304;2023-04-20T11:19:21;97107.66;;;6.95;100.00
967;BME280;56108;48.730;9.304;2023-04-20T11:21:38;97101.63;;;7.20;100.00
967;BME280;56108;48.730;9.304;2023-04-20T11:23:48;97105.47;;;7.43;100.00
967;BME280;56108;48.730;9.304;2023-04-20T11:25:56;97098.78;;;7.37;100.00
967;BME280;56108;48.730;9.304;2023-04-20T11:28:06;97104.34;;;7.47;100.00
967;BME280;56108;48.730;9.304;2023-04-20T11:30:18;97104.56;;;7.56;100.00
967;BME280;56108;48.730;9.304;2023-04-20T11:32:26;97115.94;;;7.03;100.00
967;BME280;56108;48.730;9.304;2023-04-20T11:34:38;97110.38;;;6.93;100.00
967;BME280;56108;48.730;9.304;2023-04-20T11:36:48;97119.72;;;6.99;100.00
967;BME280;56108;48.730;9.304;2023-04-20T11:39:06;97107.91;;;7.04;100.00
967;BME280;56108;48.730;9.304;2023-04-20T11:41:17;97108.94;;;7.16;100.00
967;BME280;56108;48.730;9.304;2023-04-20T11:43:25;97114.31;;;7.56;100.00
967;BME280;56108;48.730;9.304;2023-04-20T11:45:39;97119.41;;;7.32;100.00
967;BME280;56108;48.730;9.304;2023-04-20T11:47:47;97119.03;;;7.24;100.00